createdAt,value
2023-03-06T11:55:47.257Z,26.44
2023-03-06T11:56:48.723Z,26.37
2023-03-06T11:57:48.070Z,26.40
2023-03-06T11:58:48.021Z,26.06
2023-03-06T11:59:48.035Z,25.80
2023-03-06T12:00:48.014Z,25.73
2023-03-06T12:02:08.193Z,25.69
2023-03-06T12:09:29.793Z,24.96
2023-03-06T12:10:29.281Z,24.96
2023-03-06T12:11:30.661Z,24.98
2023-03-06T12:12:29.264Z,24.96
2023-03-06T18:36:59.082Z,29.30
2023-03-06T18:38:01.110Z,29.48
2023-03-06T18:39:14.141Z,29.55
2023-03-06T18:40:01.111Z,29.48
2023-03-06T18:41:03.809Z,29.46
2023-03-06T18:42:03.601Z,29.42
2023-03-06T18:43:00.646Z,29.37
2023-03-06T18:52:57.555Z,29.39
2023-03-06T18:54:00.344Z,29.46
2023-03-06T18:54:58.274Z,29.43
2023-03-06T18:56:03.141Z,29.36
2023-03-06T18:56:59.296Z,29.37
2023-03-06T18:57:57.512Z,29.46
2023-03-06T18:59:05.256Z,29.46
2023-03-06T19:00:04.094Z,29.45
2023-03-06T19:01:00.925Z,29.37
2023-03-06T19:08:19.105Z,28.98
2023-03-06T19:09:24.040Z,29.00
2023-03-06T19:10:19.094Z,29.04
2023-03-06T19:13:00.701Z,29.23
2023-03-06T19:14:01.037Z,29.27
2023-03-06T19:14:59.592Z,29.28
2023-03-06T19:16:04.062Z,29.31
2023-03-06T19:16:59.521Z,29.23
2023-03-06T19:17:59.517Z,29.14
2023-03-06T19:18:59.527Z,29.11
2023-03-06T19:19:59.522Z,29.06
2023-03-06T19:21:00.537Z,29.06
2023-03-06T19:21:59.521Z,29.08
2023-03-06T19:22:59.478Z,29.14
2023-03-06T19:23:59.448Z,29.15
2023-03-06T19:25:06.359Z,29.19
2023-03-06T19:26:01.286Z,29.19
2023-03-06T19:27:00.240Z,29.21
2023-03-06T19:32:29.974Z,29.36
2023-03-06T19:33:29.724Z,29.36
2023-03-06T19:34:34.390Z,29.41
2023-03-06T19:35:31.378Z,29.37
2023-03-06T19:36:33.772Z,29.39
2023-03-06T19:37:29.710Z,29.37
2023-03-06T19:38:30.918Z,29.34
2023-03-06T19:39:30.858Z,29.34
2023-03-06T19:40:34.757Z,29.34
2023-03-06T19:41:31.328Z,29.36
2023-03-06T19:42:51.221Z,29.33
2023-03-06T19:43:31.308Z,29.28
2023-03-06T19:44:29.439Z,29.23
2023-03-06T19:45:32.767Z,29.21
2023-03-06T19:46:33.691Z,29.19
2023-03-06T19:47:30.798Z,29.21
2023-03-06T19:48:31.423Z,29.23
2023-03-06T19:49:36.607Z,29.18
2023-03-06T19:50:33.541Z,29.12
2023-03-06T19:51:29.964Z,29.06
2023-03-06T19:52:30.724Z,29.04
2023-03-06T19:54:00.905Z,29.02
2023-03-06T19:54:54.162Z,29.05
2023-03-06T19:55:32.311Z,29.06
2023-03-06T19:56:33.981Z,29.06
2023-03-06T19:57:29.304Z,29.04
2023-03-06T19:58:29.250Z,29.09
2023-03-06T19:59:30.718Z,29.09
2023-03-06T20:00:29.207Z,29.06
2023-03-06T20:01:31.042Z,28.96
2023-03-06T20:02:31.468Z,28.88
2023-03-06T20:03:29.222Z,28.80
2023-03-06T20:04:29.765Z,28.76
2023-03-06T20:05:29.179Z,28.70
2023-03-06T20:06:29.187Z,28.56
2023-03-06T20:07:29.764Z,28.41
2023-03-06T20:08:29.153Z,28.30
2023-03-06T20:09:29.178Z,28.19
2023-03-06T20:10:29.824Z,28.12
2023-03-06T20:11:30.008Z,28.02
2023-03-06T20:12:29.073Z,28.02
2023-03-06T20:13:30.268Z,28.02
2023-03-06T20:14:29.084Z,28.03
2023-03-06T20:15:29.105Z,28.02
2023-03-06T20:16:29.041Z,27.70
2023-03-06T20:17:29.076Z,26.92
2023-03-06T20:18:31.881Z,26.23
2023-03-06T20:19:28.996Z,25.88
2023-03-06T20:20:31.199Z,25.61
2023-03-06T20:21:29.011Z,25.05
2023-03-06T20:22:28.961Z,24.43
2023-03-06T20:23:29.762Z,23.79
2023-03-06T20:24:29.713Z,23.60
2023-03-06T20:25:29.748Z,23.65
2023-03-06T20:26:28.916Z,23.75
2023-03-06T20:27:29.676Z,23.87
2023-03-06T20:28:28.891Z,24.00
2023-03-06T20:29:29.749Z,24.18
2023-03-06T20:30:37.787Z,24.32
2023-03-06T20:31:29.100Z,24.47
2023-03-06T20:32:29.556Z,24.61
2023-03-06T20:33:28.866Z,24.76
2023-03-06T20:34:29.720Z,24.87
2023-03-06T20:35:30.485Z,24.99
2023-03-06T20:36:28.832Z,25.09
2023-03-06T20:37:28.843Z,25.23
2023-03-06T20:38:28.758Z,25.38
2023-03-06T20:39:28.864Z,25.52
2023-03-06T20:40:29.803Z,25.65
2023-03-06T20:41:28.802Z,25.73
2023-03-06T20:42:29.649Z,25.83
2023-03-06T20:43:29.443Z,25.92
2023-03-06T20:44:28.760Z,26.15
2023-03-06T20:45:28.731Z,26.30
2023-03-06T20:46:29.373Z,26.37
2023-03-06T20:47:30.263Z,26.40
2023-03-06T20:48:29.194Z,26.50
2023-03-06T20:49:30.349Z,26.54
2023-03-06T20:50:28.660Z,26.65
2023-03-06T20:51:28.996Z,26.72
2023-03-06T20:52:29.202Z,26.73
2023-03-06T20:53:28.886Z,26.76
2023-03-06T20:54:28.622Z,26.76
2023-03-06T20:55:28.616Z,26.77
2023-03-06T20:56:28.590Z,26.76
2023-03-06T20:57:29.234Z,26.76
2023-03-06T20:58:28.566Z,26.77
2023-03-06T20:59:28.644Z,26.81
2023-03-06T21:00:33.246Z,26.80
2023-03-06T21:01:29.497Z,26.80
2023-03-06T21:02:29.237Z,26.81
2023-03-06T21:03:29.372Z,26.81
2023-03-06T21:04:28.561Z,26.84
2023-03-06T21:05:30.028Z,26.82
2023-03-06T21:06:29.081Z,26.85
2023-03-06T21:07:28.502Z,26.85
2023-03-06T21:08:28.446Z,26.85
2023-03-06T21:09:30.754Z,26.84
2023-03-06T21:10:28.455Z,26.84
2023-03-06T21:11:28.447Z,26.82
2023-03-06T21:12:29.131Z,26.82
2023-03-06T21:13:29.248Z,26.81
2023-03-06T21:14:28.511Z,26.82
2023-03-06T21:15:29.511Z,26.84
2023-03-06T21:16:28.439Z,26.82
2023-03-06T21:17:28.347Z,26.81
2023-03-06T21:18:28.371Z,26.77
2023-03-06T21:19:28.335Z,26.73
2023-03-06T21:20:28.420Z,26.65
2023-03-06T21:21:28.318Z,26.54
2023-03-06T21:22:28.333Z,26.47
2023-03-06T21:23:28.303Z,26.40
2023-03-06T21:24:29.244Z,26.35
2023-03-06T21:25:28.260Z,26.28
2023-03-06T21:26:28.306Z,26.18
2023-03-06T21:27:28.928Z,26.15
2023-03-06T21:28:28.271Z,26.13
2023-03-06T21:29:28.235Z,26.10
2023-03-06T21:30:28.242Z,26.10
2023-03-06T21:31:28.324Z,26.12
2023-03-06T21:32:28.878Z,26.09
2023-03-06T21:33:29.890Z,26.05
2023-03-06T21:34:28.939Z,25.82
2023-03-06T21:35:28.177Z,25.54
2023-03-06T21:36:28.214Z,25.42
2023-03-06T21:37:28.217Z,25.36
2023-03-06T21:38:28.834Z,25.36
2023-03-06T21:39:30.454Z,25.36
2023-03-06T21:40:29.038Z,25.36
2023-03-06T21:41:29.545Z,25.33
2023-03-06T21:42:28.876Z,25.33
2023-03-06T21:43:28.130Z,25.33
2023-03-06T21:44:28.074Z,25.10
2023-03-06T21:45:28.786Z,25.10
2023-03-06T21:46:29.841Z,25.10
2023-03-06T21:47:28.667Z,25.10
2023-03-06T21:48:28.775Z,25.10
2023-03-06T21:49:28.010Z,25.13
2023-03-06T21:50:28.028Z,25.09
2023-03-06T22:48:38.167Z,23.51
2023-03-06T22:49:38.852Z,23.60
2023-03-06T22:50:39.763Z,23.69
2023-03-06T22:53:07.985Z,24.00
2023-03-06T22:54:08.252Z,24.16
2023-03-06T22:55:08.257Z,24.27
2023-03-06T22:56:08.239Z,24.43
2023-03-06T22:57:08.265Z,24.49
2023-03-06T22:58:23.957Z,24.58
2023-03-06T22:59:08.201Z,24.61
2023-03-06T23:00:12.486Z,24.65
2023-03-06T23:01:08.190Z,24.61
2023-03-06T23:03:13.124Z,24.50
2023-03-06T23:03:18.811Z,24.55
2023-03-06T23:04:19.555Z,24.57
2023-03-06T23:05:18.801Z,24.37
2023-03-06T23:06:18.812Z,24.22
2023-03-06T23:07:18.764Z,24.12
2023-03-06T23:08:18.811Z,24.02
2023-03-06T23:09:19.510Z,24.06
2023-03-06T23:10:18.762Z,24.25
2023-03-06T23:11:19.597Z,24.40
2023-03-06T23:12:19.634Z,24.55
2023-03-06T23:13:18.745Z,24.58
2023-03-06T23:14:18.822Z,24.61
2023-03-06T23:15:19.768Z,24.58
2023-03-06T23:16:20.603Z,24.57
2023-03-06T23:17:18.667Z,24.39
2023-03-06T23:18:20.817Z,24.22
2023-03-06T23:19:18.680Z,24.22
2023-03-06T23:20:21.031Z,24.24
2023-03-06T23:21:18.602Z,24.24
2023-03-06T23:22:20.778Z,24.24
2023-03-06T23:23:18.639Z,24.21
2023-03-06T23:24:18.661Z,24.21
2023-03-06T23:25:21.600Z,24.20
2023-03-06T23:26:20.777Z,24.24
2023-03-06T23:27:18.587Z,24.20
2023-03-06T23:28:21.325Z,23.98
2023-03-06T23:29:20.467Z,23.83
2023-03-06T23:30:20.645Z,23.72
2023-03-06T23:31:18.589Z,23.70
2023-03-06T23:32:19.441Z,23.65
2023-03-06T23:33:18.498Z,23.60
2023-03-06T23:34:19.036Z,23.54
2023-03-06T23:35:19.103Z,23.51
2023-03-06T23:36:19.647Z,23.50
2023-03-06T23:37:18.451Z,23.50
2023-03-06T23:38:19.236Z,23.50
2023-03-06T23:39:18.512Z,23.47
2023-03-06T23:40:18.464Z,23.42
2023-03-06T23:41:18.441Z,23.42
2023-03-06T23:42:19.022Z,23.47
2023-03-06T23:43:19.845Z,23.50
2023-03-06T23:44:21.575Z,23.53
2023-03-06T23:45:19.530Z,23.57
2023-03-06T23:46:18.440Z,23.66
2023-03-06T23:47:18.365Z,23.75
2023-03-06T23:48:18.396Z,23.73
2023-03-06T23:49:19.983Z,23.73
2023-03-06T23:50:18.367Z,23.73
2023-03-06T23:51:19.002Z,23.75
2023-03-06T23:52:18.298Z,23.76
2023-03-06T23:53:18.605Z,23.69
2023-03-06T23:54:19.238Z,23.68
2023-03-06T23:55:18.242Z,23.73
2023-03-06T23:56:19.028Z,23.79
2023-03-06T23:57:18.272Z,23.83
2023-03-06T23:58:19.022Z,23.91
2023-03-06T23:59:18.549Z,23.97
